sensor_id;sensor_type;location;lat;lon;timestamp;P1;durP1;ratioP1;P2;durP2;ratioP2
70850;SDS011;58475;49.662;9.636;2022-08-25T00:00:39;6.25;;;3.95;;
70850;SDS011;58475;49.662;9.636;2022-08-25T00:03:05;6.95;;;4.25;;
70850;SDS011;58475;49.662;9.636;2022-08-25T00:05:31;6.93;;;4.30;;
70850;SDS011;58475;49.662;9.636;2022-08-25T00:07:56;9.98;;;4.28;;
70850;SDS011;58475;49.662;9.636;2022-08-25T00:10:21;7.43;;;4.47;;
70850;SDS011;58475;49.662;9.636;2022-08-25T00:12:47;7.15;;;4.35;;
70850;SDS011;58475;49.662;9.636;2022-08-25T00:15:12;8.35;;;4.82;;
70850;SDS011;58475;49.662;9.636;2022-08-25T00:17:38;7.00;;;4.20;;
70850;SDS011;58475;49.662;9.636;2022-08-25T00:20:04;8.70;;;4.80;;
70850;SDS011;58475;49.662;9.636;2022-08-25T00:22:30;7.97;;;4.45;;
70850;SDS011;58475;49.662;9.636;2022-08-25T00:24:56;7.07;;;4.35;;
70850;SDS011;58475;49.662;9.636;2022-08-25T00:27:21;8.45;;;4.68;;
70850;SDS011;58475;49.662;9.636;2022-08-25T00:29:46;8.88;;;4.45;;
70850;SDS011;58475;49.662;9.636;2022-08-25T00:32:12;9.00;;;4.70;;
70850;SDS011;58475;49.662;9.636;2022-08-25T00:34:37;8.23;;;4.75;;
70850;SDS011;58475;49.662;9.636;2022-08-25T00:37:04;8.00;;;4.72;;
70850;SDS011;58475;49.662;9.636;2022-08-25T00:39:33;8.02;;;4.60;;
70850;SDS011;58475;49.662;9.636;2022-08-25T00:41:59;9.25;;;5.05;;
70850;SDS011;58475;49.662;9.636;2022-08-25T00:44:25;7.65;;;4.60;;
70850;SDS011;58475;49.662;9.636;2022-08-25T00:46:53;7.53;;;4.60;;
70850;SDS011;58475;49.662;9.636;2022-08-25T00:51:50;7.97;;;4.60;;
70850;SDS011;58475;49.662;9.636;2022-08-25T00:54:26;8.55;;;4.70;;
70850;SDS011;58475;49.662;9.636;2022-08-25T00:56:55;9.50;;;4.70;;
70850;SDS011;58475;49.662;9.636;2022-08-25T00:59:22;8.20;;;4.60;;
70850;SDS011;58475;49.662;9.636;2022-08-25T01:01:50;6.97;;;4.40;;
70850;SDS011;58475;49.662;9.636;2022-08-25T01:04:16;7.43;;;4.18;;
70850;SDS011;58475;49.662;9.636;2022-08-25T01:06:43;7.10;;;4.72;;
70850;SDS011;58475;49.662;9.636;2022-08-25T01:09:10;7.68;;;4.22;;
70850;SDS011;58475;49.662;9.636;2022-08-25T01:11:37;7.40;;;4.47;;
70850;SDS011;58475;49.662;9.636;2022-08-25T01:14:04;8.68;;;4.50;;
70850;SDS011;58475;49.662;9.636;2022-08-25T01:16:34;6.95;;;4.53;;
70850;SDS011;58475;49.662;9.636;2022-08-25T01:19:02;8.68;;;4.70;;
70850;SDS011;58475;49.662;9.636;2022-08-25T01:21:29;7.22;;;4.32;;
70850;SDS011;58475;49.662;9.636;2022-08-25T01:23:57;8.25;;;4.55;;
70850;SDS011;58475;49.662;9.636;2022-08-25T01:26:25;8.20;;;4.60;;
70850;SDS011;58475;49.662;9.636;2022-08-25T01:28:53;7.57;;;4.30;;
70850;SDS011;58475;49.662;9.636;2022-08-25T01:31:38;7.50;;;4.60;;
70850;SDS011;58475;49.662;9.636;2022-08-25T01:34:05;8.35;;;4.35;;
70850;SDS011;58475;49.662;9.636;2022-08-25T01:36:31;8.40;;;4.38;;
70850;SDS011;58475;49.662;9.636;2022-08-25T01:38:57;9.80;;;4.40;;
70850;SDS011;58475;49.662;9.636;2022-08-25T01:41:30;7.75;;;4.40;;
70850;SDS011;58475;49.662;9.636;2022-08-25T01:44:04;8.45;;;4.60;;
70850;SDS011;58475;49.662;9.636;2022-08-25T01:46:32;8.68;;;4.45;;
70850;SDS011;58475;49.662;9.636;2022-08-25T01:48:59;8.88;;;4.78;;
70850;SDS011;58475;49.662;9.636;2022-08-25T01:51:27;9.13;;;4.90;;
70850;SDS011;58475;49.662;9.636;2022-08-25T01:53:54;7.47;;;4.90;;
70850;SDS011;58475;49.662;9.636;2022-08-25T01:56:19;8.32;;;4.50;;
70850;SDS011;58475;49.662;9.636;2022-08-25T01:58:46;7.85;;;4.28;;
70850;SDS011;58475;49.662;9.636;2022-08-25T02:01:14;8.65;;;4.70;;
70850;SDS011;58475;49.662;9.636;2022-08-25T02:03:45;7.75;;;4.70;;
70850;SDS011;58475;49.662;9.636;2022-08-25T02:06:13;8.00;;;4.47;;
70850;SDS011;58475;49.662;9.636;2022-08-25T02:08:40;7.15;;;4.53;;
70850;SDS011;58475;49.662;9.636;2022-08-25T02:11:08;7.60;;;4.68;;
70850;SDS011;58475;49.662;9.636;2022-08-25T02:13:36;7.80;;;4.40;;
70850;SDS011;58475;49.662;9.636;2022-08-25T02:16:02;8.00;;;4.70;;
70850;SDS011;58475;49.662;9.636;2022-08-25T02:18:28;8.02;;;4.75;;
70850;SDS011;58475;49.662;9.636;2022-08-25T02:20:54;8.65;;;4.40;;
70850;SDS011;58475;49.662;9.636;2022-08-25T02:23:19;6.65;;;4.20;;
70850;SDS011;58475;49.662;9.636;2022-08-25T02:25:45;8.30;;;4.53;;
70850;SDS011;58475;49.662;9.636;2022-08-25T02:28:11;8.02;;;4.53;;
70850;SDS011;58475;49.662;9.636;2022-08-25T02:30:38;8.55;;;4.28;;
70850;SDS011;58475;49.662;9.636;2022-08-25T02:33:04;8.13;;;4.20;;
70850;SDS011;58475;49.662;9.636;2022-08-25T02:35:30;9.00;;;4.60;;
70850;SDS011;58475;49.662;9.636;2022-08-25T02:37:56;8.00;;;4.90;;
70850;SDS011;58475;49.662;9.636;2022-08-25T02:40:21;8.55;;;4.95;;
70850;SDS011;58475;49.662;9.636;2022-08-25T02:42:48;8.25;;;4.90;;
70850;SDS011;58475;49.662;9.636;2022-08-25T02:45:13;7.72;;;4.75;;
70850;SDS011;58475;49.662;9.636;2022-08-25T02:47:40;7.70;;;4.88;;
70850;SDS011;58475;49.662;9.636;2022-08-25T02:50:06;8.27;;;4.68;;
70850;SDS011;58475;49.662;9.636;2022-08-25T02:52:32;10.40;;;5.05;;
70850;SDS011;58475;49.662;9.636;2022-08-25T02:54:59;7.40;;;4.72;;
70850;SDS011;58475;49.662;9.636;2022-08-25T02:57:28;7.97;;;4.70;;
70850;SDS011;58475;49.662;9.636;2022-08-25T02:59:53;7.45;;;4.20;;
70850;SDS011;58475;49.662;9.636;2022-08-25T03:02:18;8.95;;;5.03;;
70850;SDS011;58475;49.662;9.636;2022-08-25T03:04:44;8.52;;;4.97;;
70850;SDS011;58475;49.662;9.636;2022-08-25T03:07:09;7.22;;;4.53;;
70850;SDS011;58475;49.662;9.636;2022-08-25T03:09:35;9.57;;;4.65;;
70850;SDS011;58475;49.662;9.636;2022-08-25T03:12:01;8.20;;;4.80;;
70850;SDS011;58475;49.662;9.636;2022-08-25T03:14:27;8.82;;;4.80;;
70850;SDS011;58475;49.662;9.636;2022-08-25T03:16:52;7.50;;;4.32;;
70850;SDS011;58475;49.662;9.636;2022-08-25T03:19:17;8.80;;;4.57;;
70850;SDS011;58475;49.662;9.636;2022-08-25T03:21:43;7.22;;;4.38;;
70850;SDS011;58475;49.662;9.636;2022-08-25T03:24:09;8.77;;;4.70;;
70850;SDS011;58475;49.662;9.636;2022-08-25T03:26:35;11.18;;;4.93;;
70850;SDS011;58475;49.662;9.636;2022-08-25T03:29:25;8.50;;;4.55;;
70850;SDS011;58475;49.662;9.636;2022-08-25T03:31:56;6.75;;;4.18;;
70850;SDS011;58475;49.662;9.636;2022-08-25T03:34:22;8.45;;;4.80;;
70850;SDS011;58475;49.662;9.636;2022-08-25T03:36:49;8.15;;;4.47;;
70850;SDS011;58475;49.662;9.636;2022-08-25T03:39:17;7.97;;;4.65;;
70850;SDS011;58475;49.662;9.636;2022-08-25T03:41:43;8.30;;;4.53;;
70850;SDS011;58475;49.662;9.636;2022-08-25T03:44:10;7.55;;;4.53;;
70850;SDS011;58475;49.662;9.636;2022-08-25T03:46:39;9.35;;;4.88;;
70850;SDS011;58475;49.662;9.636;2022-08-25T03:49:09;8.60;;;4.88;;
70850;SDS011;58475;49.662;9.636;2022-08-25T03:51:39;8.00;;;5.07;;
70850;SDS011;58475;49.662;9.636;2022-08-25T03:54:08;9.30;;;4.87;;
70850;SDS011;58475;49.662;9.636;2022-08-25T03:56:35;7.80;;;4.60;;
70850;SDS011;58475;49.662;9.636;2022-08-25T03:59:00;8.15;;;4.55;;
70850;SDS011;58475;49.662;9.636;2022-08-25T04:01:26;9.30;;;5.13;;
70850;SDS011;58475;49.662;9.636;2022-08-25T04:03:52;8.10;;;5.13;;
70850;SDS011;58475;49.662;9.636;2022-08-25T04:06:18;7.93;;;4.80;;
70850;SDS011;58475;49.662;9.636;2022-08-25T04:08:44;11.52;;;5.65;;
70850;SDS011;58475;49.662;9.636;2022-08-25T04:11:11;8.13;;;4.47;;
70850;SDS011;58475;49.662;9.636;2022-08-25T04:13:42;10.00;;;5.10;;
70850;SDS011;58475;49.662;9.636;2022-08-25T04:16:10;7.65;;;4.75;;
70850;SDS011;58475;49.662;9.636;2022-08-25T04:18:41;8.68;;;4.90;;
70850;SDS011;58475;49.662;9.636;2022-08-25T04:21:07;9.32;;;4.82;;
70850;SDS011;58475;49.662;9.636;2022-08-25T04:23:34;8.73;;;5.15;;
70850;SDS011;58475;49.662;9.636;2022-08-25T04:26:01;8.70;;;4.80;;
70850;SDS011;58475;49.662;9.636;2022-08-25T04:28:31;8.93;;;5.50;;
70850;SDS011;58475;49.662;9.636;2022-08-25T04:30:57;9.57;;;5.55;;
70850;SDS011;58475;49.662;9.636;2022-08-25T04:33:22;9.57;;;5.43;;
70850;SDS011;58475;49.662;9.636;2022-08-25T04:35:48;9.93;;;5.38;;
70850;SDS011;58475;49.662;9.636;2022-08-25T04:38:14;10.88;;;5.65;;
70850;SDS011;58475;49.662;9.636;2022-08-25T04:40:39;11.68;;;6.10;;
70850;SDS011;58475;49.662;9.636;2022-08-25T04:43:04;10.82;;;5.93;;
70850;SDS011;58475;49.662;9.636;2022-08-25T04:45:30;10.65;;;5.78;;
70850;SDS011;58475;49.662;9.636;2022-08-25T04:47:55;9.52;;;5.32;;
70850;SDS011;58475;49.662;9.636;2022-08-25T04:50:24;8.10;;;4.78;;
70850;SDS011;58475;49.662;9.636;2022-08-25T04:52:50;9.15;;;5.20;;
70850;SDS011;58475;49.662;9.636;2022-08-25T04:55:15;8.23;;;4.85;;
70850;SDS011;58475;49.662;9.636;2022-08-25T04:57:42;13.45;;;5.38;;
70850;SDS011;58475;49.662;9.636;2022-08-25T05:00:08;9.43;;;5.57;;
70850;SDS011;58475;49.662;9.636;2022-08-25T05:02:33;8.52;;;5.57;;
70850;SDS011;58475;49.662;9.636;2022-08-25T05:04:59;10.05;;;5.85;;
70850;SDS011;58475;49.662;9.636;2022-08-25T05:07:25;10.05;;;5.97;;
70850;SDS011;58475;49.662;9.636;2022-08-25T05:09:50;9.60;;;5.78;;
70850;SDS011;58475;49.662;9.636;2022-08-25T05:12:15;9.23;;;5.75;;
70850;SDS011;58475;49.662;9.636;2022-08-25T05:14:41;9.75;;;5.22;;
70850;SDS011;58475;49.662;9.636;2022-08-25T05:17:06;9.07;;;5.55;;
70850;SDS011;58475;49.662;9.636;2022-08-25T05:19:32;12.57;;;5.57;;
70850;SDS011;58475;49.662;9.636;2022-08-25T05:21:57;10.63;;;5.93;;
70850;SDS011;58475;49.662;9.636;2022-08-25T05:24:22;9.82;;;5.32;;
70850;SDS011;58475;49.662;9.636;2022-08-25T05:26:48;9.32;;;5.65;;
70850;SDS011;58475;49.662;9.636;2022-08-25T05:29:13;9.32;;;5.50;;
70850;SDS011;58475;49.662;9.636;2022-08-25T05:31:39;9.10;;;5.82;;
70850;SDS011;58475;49.662;9.636;2022-08-25T05:34:06;10.05;;;5.43;;
70850;SDS011;58475;49.662;9.636;2022-08-25T05:36:32;10.32;;;5.68;;
70850;SDS011;58475;49.662;9.636;2022-08-25T05:38:58;8.35;;;5.05;;
70850;SDS011;58475;49.662;9.636;2022-08-25T05:41:25;9.88;;;6.05;;
70850;SDS011;58475;49.662;9.636;2022-08-25T05:43:52;9.82;;;6.15;;
70850;SDS011;58475;49.662;9.636;2022-08-25T05:46:18;10.10;;;5.50;;
70850;SDS011;58475;49.662;9.636;2022-08-25T05:48:45;9.35;;;5.78;;
70850;SDS011;58475;49.662;9.636;2022-08-25T05:51:11;9.02;;;5.85;;
70850;SDS011;58475;49.662;9.636;2022-08-25T05:53:39;12.07;;;5.88;;
70850;SDS011;58475;49.662;9.636;2022-08-25T05:56:07;9.63;;;5.65;;
70850;SDS011;58475;49.662;9.636;2022-08-25T05:58:33;11.00;;;5.50;;
70850;SDS011;58475;49.662;9.636;2022-08-25T06:00:59;8.48;;;5.22;;
70850;SDS011;58475;49.662;9.636;2022-08-25T06:03:45;9.82;;;5.57;;
70850;SDS011;58475;49.662;9.636;2022-08-25T06:06:11;10.82;;;5.65;;
70850;SDS011;58475;49.662;9.636;2022-08-25T06:08:37;8.95;;;5.57;;
70850;SDS011;58475;49.662;9.636;2022-08-25T06:11:02;10.15;;;5.43;;
70850;SDS011;58475;49.662;9.636;2022-08-25T06:13:28;9.45;;;5.55;;
70850;SDS011;58475;49.662;9.636;2022-08-25T06:15:57;9.77;;;5.70;;
70850;SDS011;58475;49.662;9.636;2022-08-25T06:18:23;9.20;;;5.72;;
70850;SDS011;58475;49.662;9.636;2022-08-25T06:20:49;8.60;;;5.85;;
70850;SDS011;58475;49.662;9.636;2022-08-25T06:23:15;8.85;;;5.20;;
70850;SDS011;58475;49.662;9.636;2022-08-25T06:25:47;10.82;;;5.38;;
70850;SDS011;58475;49.662;9.636;2022-08-25T06:28:13;8.68;;;5.80;;
70850;SDS011;58475;49.662;9.636;2022-08-25T06:30:39;8.20;;;4.80;;
70850;SDS011;58475;49.662;9.636;2022-08-25T06:33:04;8.57;;;5.28;;
70850;SDS011;58475;49.662;9.636;2022-08-25T06:35:29;10.35;;;5.53;;
70850;SDS011;58475;49.662;9.636;2022-08-25T06:37:55;8.32;;;5.15;;
70850;SDS011;58475;49.662;9.636;2022-08-25T06:40:20;8.38;;;5.40;;
70850;SDS011;58475;49.662;9.636;2022-08-25T06:42:47;9.52;;;5.72;;
70850;SDS011;58475;49.662;9.636;2022-08-25T06:45:13;9.23;;;5.55;;
70850;SDS011;58475;49.662;9.636;2022-08-25T06:47:38;10.43;;;5.32;;
70850;SDS011;58475;49.662;9.636;2022-08-25T06:50:04;9.65;;;5.35;;
70850;SDS011;58475;49.662;9.636;2022-08-25T06:52:30;7.82;;;4.88;;
70850;SDS011;58475;49.662;9.636;2022-08-25T06:54:56;10.27;;;5.25;;
70850;SDS011;58475;49.662;9.636;2022-08-25T06:57:21;8.57;;;5.18;;
70850;SDS011;58475;49.662;9.636;2022-08-25T06:59:47;10.48;;;5.78;;
70850;SDS011;58475;49.662;9.636;2022-08-25T07:02:13;10.38;;;5.30;;
70850;SDS011;58475;49.662;9.636;2022-08-25T07:04:38;10.45;;;5.13;;
70850;SDS011;58475;49.662;9.636;2022-08-25T07:07:04;10.05;;;5.70;;
70850;SDS011;58475;49.662;9.636;2022-08-25T07:09:29;8.15;;;5.80;;
70850;SDS011;58475;49.662;9.636;2022-08-25T07:11:55;9.05;;;5.90;;
70850;SDS011;58475;49.662;9.636;2022-08-25T07:14:21;9.88;;;5.68;;
70850;SDS011;58475;49.662;9.636;2022-08-25T07:16:46;8.88;;;5.70;;
70850;SDS011;58475;49.662;9.636;2022-08-25T07:19:12;8.88;;;6.20;;
70850;SDS011;58475;49.662;9.636;2022-08-25T07:21:39;12.88;;;6.40;;
70850;SDS011;58475;49.662;9.636;2022-08-25T07:24:07;9.80;;;6.32;;
70850;SDS011;58475;49.662;9.636;2022-08-25T07:26:34;9.40;;;6.63;;
70850;SDS011;58475;49.662;9.636;2022-08-25T07:29:02;10.10;;;6.53;;
70850;SDS011;58475;49.662;9.636;2022-08-25T07:31:29;10.15;;;6.55;;
70850;SDS011;58475;49.662;9.636;2022-08-25T07:33:55;11.18;;;6.93;;
70850;SDS011;58475;49.662;9.636;2022-08-25T07:36:40;11.90;;;6.75;;
70850;SDS011;58475;49.662;9.636;2022-08-25T07:39:05;12.95;;;7.32;;
70850;SDS011;58475;49.662;9.636;2022-08-25T07:41:34;10.82;;;7.53;;
70850;SDS011;58475;49.662;9.636;2022-08-25T07:44:01;11.05;;;7.35;;
70850;SDS011;58475;49.662;9.636;2022-08-25T07:46:26;12.52;;;7.95;;
70850;SDS011;58475;49.662;9.636;2022-08-25T07:48:52;9.98;;;7.05;;
70850;SDS011;58475;49.662;9.636;2022-08-25T07:51:17;13.07;;;7.93;;
70850;SDS011;58475;49.662;9.636;2022-08-25T07:53:43;11.85;;;7.63;;
70850;SDS011;58475;49.662;9.636;2022-08-25T07:56:12;12.35;;;7.43;;
70850;SDS011;58475;49.662;9.636;2022-08-25T07:58:40;11.35;;;7.88;;
70850;SDS011;58475;49.662;9.636;2022-08-25T08:01:06;17.52;;;8.10;;
70850;SDS011;58475;49.662;9.636;2022-08-25T08:03:37;12.43;;;7.95;;
70850;SDS011;58475;49.662;9.636;2022-08-25T08:06:06;12.65;;;7.68;;
70850;SDS011;58475;49.662;9.636;2022-08-25T08:08:32;10.00;;;7.30;;
70850;SDS011;58475;49.662;9.636;2022-08-25T08:10:58;11.82;;;7.07;;
70850;SDS011;58475;49.662;9.636;2022-08-25T08:13:24;12.77;;;8.02;;
70850;SDS011;58475;49.662;9.636;2022-08-25T08:15:50;10.75;;;7.13;;
70850;SDS011;58475;49.662;9.636;2022-08-25T08:18:17;15.10;;;7.80;;
70850;SDS011;58475;49.662;9.636;2022-08-25T08:20:43;14.27;;;8.23;;
70850;SDS011;58475;49.662;9.636;2022-08-25T08:23:10;12.43;;;7.90;;
70850;SDS011;58475;49.662;9.636;2022-08-25T08:25:35;13.63;;;7.97;;
70850;SDS011;58475;49.662;9.636;2022-08-25T08:28:01;11.32;;;7.75;;
70850;SDS011;58475;49.662;9.636;2022-08-25T08:30:26;10.55;;;7.40;;
70850;SDS011;58475;49.662;9.636;2022-08-25T08:32:52;11.77;;;7.15;;
70850;SDS011;58475;49.662;9.636;2022-08-25T08:35:18;10.70;;;7.03;;
70850;SDS011;58475;49.662;9.636;2022-08-25T08:37:44;11.13;;;7.68;;
70850;SDS011;58475;49.662;9.636;2022-08-25T08:40:11;10.88;;;7.60;;
70850;SDS011;58475;49.662;9.636;2022-08-25T08:45:36;12.95;;;7.93;;
70850;SDS011;58475;49.662;9.636;2022-08-25T08:48:38;9.98;;;7.30;;
70850;SDS011;58475;49.662;9.636;2022-08-25T08:54:29;13.77;;;7.45;;
70850;SDS011;58475;49.662;9.636;2022-08-25T08:56:35;10.77;;;7.25;;
70850;SDS011;58475;49.662;9.636;2022-08-25T08:59:08;9.55;;;6.65;;
70850;SDS011;58475;49.662;9.636;2022-08-25T09:06:55;12.68;;;6.97;;
70850;SDS011;58475;49.662;9.636;2022-08-25T09:09:27;8.38;;;6.05;;
70850;SDS011;58475;49.662;9.636;2022-08-25T09:23:19;7.75;;;5.55;;
70850;SDS011;58475;49.662;9.636;2022-08-25T09:29:03;7.72;;;4.75;;
70850;SDS011;58475;49.662;9.636;2022-08-25T09:31:31;7.28;;;5.20;;
70850;SDS011;58475;49.662;9.636;2022-08-25T09:34:03;7.20;;;5.00;;
70850;SDS011;58475;49.662;9.636;2022-08-25T09:36:42;8.00;;;5.38;;
70850;SDS011;58475;49.662;9.636;2022-08-25T09:39:09;8.65;;;5.20;;
70850;SDS011;58475;49.662;9.636;2022-08-25T09:41:55;9.52;;;5.50;;
70850;SDS011;58475;49.662;9.636;2022-08-25T09:44:23;8.55;;;5.28;;
70850;SDS011;58475;49.662;9.636;2022-08-25T09:47:06;7.88;;;5.40;;
70850;SDS011;58475;49.662;9.636;2022-08-25T09:49:47;8.05;;;5.53;;
70850;SDS011;58475;49.662;9.636;2022-08-25T09:57:53;8.88;;;4.68;;
70850;SDS011;58475;49.662;9.636;2022-08-25T10:08:25;7.45;;;4.60;;
70850;SDS011;58475;49.662;9.636;2022-08-25T10:11:37;7.07;;;4.50;;
70850;SDS011;58475;49.662;9.636;2022-08-25T10:14:14;8.77;;;5.10;;
70850;SDS011;58475;49.662;9.636;2022-08-25T10:16:40;9.35;;;5.28;;
70850;SDS011;58475;49.662;9.636;2022-08-25T10:19:07;8.35;;;5.13;;
70850;SDS011;58475;49.662;9.636;2022-08-25T10:22:00;9.18;;;5.20;;
70850;SDS011;58475;49.662;9.636;2022-08-25T10:24:29;10.82;;;5.10;;
70850;SDS011;58475;49.662;9.636;2022-08-25T10:26:57;7.53;;;4.75;;
70850;SDS011;58475;49.662;9.636;2022-08-25T10:32:36;7.22;;;5.05;;
70850;SDS011;58475;49.662;9.636;2022-08-25T10:35:16;7.85;;;5.28;;
70850;SDS011;58475;49.662;9.636;2022-08-25T10:40:20;8.75;;;5.30;;
70850;SDS011;58475;49.662;9.636;2022-08-25T10:45:53;7.80;;;5.60;;
70850;SDS011;58475;49.662;9.636;2022-08-25T10:59:43;7.57;;;5.30;;
70850;SDS011;58475;49.662;9.636;2022-08-25T11:02:41;8.80;;;5.13;;
70850;SDS011;58475;49.662;9.636;2022-08-25T11:05:19;7.70;;;4.63;;
70850;SDS011;58475;49.662;9.636;2022-08-25T11:07:57;8.95;;;4.93;;
70850;SDS011;58475;49.662;9.636;2022-08-25T11:10:58;7.40;;;5.22;;
70850;SDS011;58475;49.662;9.636;2022-08-25T11:13:41;9.80;;;5.05;;
70850;SDS011;58475;49.662;9.636;2022-08-25T11:16:14;7.72;;;5.30;;
70850;SDS011;58475;49.662;9.636;2022-08-25T11:21:17;7.53;;;5.45;;
70850;SDS011;58475;49.662;9.636;2022-08-25T11:24:09;8.65;;;5.55;;
70850;SDS011;58475;49.662;9.636;2022-08-25T11:26:54;7.85;;;4.88;;
70850;SDS011;58475;49.662;9.636;2022-08-25T11:29:21;8.45;;;5.30;;
70850;SDS011;58475;49.662;9.636;2022-08-25T11:31:51;9.55;;;5.18;;
70850;SDS011;58475;49.662;9.636;2022-08-25T11:34:17;9.02;;;4.78;;
70850;SDS011;58475;49.662;9.636;2022-08-25T11:37:02;9.85;;;5.20;;
70850;SDS011;58475;49.662;9.636;2022-08-25T11:50:31;8.52;;;5.00;;
70850;SDS011;58475;49.662;9.636;2022-08-25T11:58:26;9.30;;;4.60;;
70850;SDS011;58475;49.662;9.636;2022-08-25T12:06:37;9.15;;;4.78;;
70850;SDS011;58475;49.662;9.636;2022-08-25T12:09:33;9.25;;;4.75;;
70850;SDS011;58475;49.662;9.636;2022-08-25T12:23:29;7.78;;;4.53;;
70850;SDS011;58475;49.662;9.636;2022-08-25T12:25:56;8.18;;;5.10;;
70850;SDS011;58475;49.662;9.636;2022-08-25T12:28:35;7.28;;;4.30;;
70850;SDS011;58475;49.662;9.636;2022-08-25T12:31:10;7.70;;;4.75;;
70850;SDS011;58475;49.662;9.636;2022-08-25T12:33:47;6.32;;;4.60;;
70850;SDS011;58475;49.662;9.636;2022-08-25T12:36:26;10.13;;;5.00;;
70850;SDS011;58475;49.662;9.636;2022-08-25T12:38:55;7.45;;;4.82;;
70850;SDS011;58475;49.662;9.636;2022-08-25T12:41:49;8.02;;;4.75;;
70850;SDS011;58475;49.662;9.636;2022-08-25T12:47:25;8.40;;;4.68;;
70850;SDS011;58475;49.662;9.636;2022-08-25T12:50:23;8.30;;;4.80;;
70850;SDS011;58475;49.662;9.636;2022-08-25T12:53:14;7.85;;;4.50;;
70850;SDS011;58475;49.662;9.636;2022-08-25T12:55:55;8.02;;;4.65;;
70850;SDS011;58475;49.662;9.636;2022-08-25T12:58:33;8.05;;;4.82;;
70850;SDS011;58475;49.662;9.636;2022-08-25T13:07:04;6.30;;;4.18;;
70850;SDS011;58475;49.662;9.636;2022-08-25T13:14:59;6.75;;;4.25;;
70850;SDS011;58475;49.662;9.636;2022-08-25T13:17:26;6.57;;;4.07;;
70850;SDS011;58475;49.662;9.636;2022-08-25T13:20:09;7.90;;;4.20;;
70850;SDS011;58475;49.662;9.636;2022-08-25T13:22:42;7.38;;;3.97;;
70850;SDS011;58475;49.662;9.636;2022-08-25T13:25:14;6.57;;;4.05;;
70850;SDS011;58475;49.662;9.636;2022-08-25T13:27:52;6.78;;;3.92;;
70850;SDS011;58475;49.662;9.636;2022-08-25T13:30:30;7.80;;;4.05;;
70850;SDS011;58475;49.662;9.636;2022-08-25T13:32:58;6.97;;;3.90;;
70850;SDS011;58475;49.662;9.636;2022-08-25T13:35:28;7.80;;;4.20;;
70850;SDS011;58475;49.662;9.636;2022-08-25T13:38:12;6.47;;;3.50;;
70850;SDS011;58475;49.662;9.636;2022-08-25T13:40:38;6.32;;;3.90;;
70850;SDS011;58475;49.662;9.636;2022-08-25T13:43:08;7.63;;;3.60;;
70850;SDS011;58475;49.662;9.636;2022-08-25T13:45:42;5.93;;;3.70;;
70850;SDS011;58475;49.662;9.636;2022-08-25T13:48:10;6.57;;;3.45;;
70850;SDS011;58475;49.662;9.636;2022-08-25T13:50:38;7.28;;;3.63;;
70850;SDS011;58475;49.662;9.636;2022-08-25T13:53:10;6.68;;;3.90;;
70850;SDS011;58475;49.662;9.636;2022-08-25T13:58:14;7.07;;;3.90;;
70850;SDS011;58475;49.662;9.636;2022-08-25T14:00:45;6.95;;;3.70;;
70850;SDS011;58475;49.662;9.636;2022-08-25T14:06:06;7.35;;;4.07;;
70850;SDS011;58475;49.662;9.636;2022-08-25T14:11:13;6.82;;;4.03;;
70850;SDS011;58475;49.662;9.636;2022-08-25T14:13:58;8.38;;;4.30;;
70850;SDS011;58475;49.662;9.636;2022-08-25T14:16:25;6.80;;;3.95;;
70850;SDS011;58475;49.662;9.636;2022-08-25T14:18:55;6.68;;;4.18;;
70850;SDS011;58475;49.662;9.636;2022-08-25T14:21:24;7.85;;;4.13;;
70850;SDS011;58475;49.662;9.636;2022-08-25T14:23:52;7.30;;;3.85;;
70850;SDS011;58475;49.662;9.636;2022-08-25T14:26:19;6.57;;;4.00;;
70850;SDS011;58475;49.662;9.636;2022-08-25T14:28:44;6.38;;;4.10;;
70850;SDS011;58475;49.662;9.636;2022-08-25T14:31:19;6.47;;;4.13;;
70850;SDS011;58475;49.662;9.636;2022-08-25T14:34:00;6.72;;;3.70;;
70850;SDS011;58475;49.662;9.636;2022-08-25T14:36:30;8.20;;;3.90;;
70850;SDS011;58475;49.662;9.636;2022-08-25T14:38:57;5.97;;;3.60;;
70850;SDS011;58475;49.662;9.636;2022-08-25T14:41:23;6.70;;;3.70;;
70850;SDS011;58475;49.662;9.636;2022-08-25T14:43:50;5.90;;;3.63;;
70850;SDS011;58475;49.662;9.636;2022-08-25T14:46:21;6.47;;;3.50;;
70850;SDS011;58475;49.662;9.636;2022-08-25T14:48:53;6.05;;;3.75;;
70850;SDS011;58475;49.662;9.636;2022-08-25T14:51:24;7.35;;;3.70;;
70850;SDS011;58475;49.662;9.636;2022-08-25T14:53:52;5.85;;;3.58;;
70850;SDS011;58475;49.662;9.636;2022-08-25T14:56:20;6.28;;;3.78;;
70850;SDS011;58475;49.662;9.636;2022-08-25T14:58:45;5.53;;;3.42;;
70850;SDS011;58475;49.662;9.636;2022-08-25T15:01:11;6.45;;;3.70;;
70850;SDS011;58475;49.662;9.636;2022-08-25T15:03:39;6.10;;;3.53;;
70850;SDS011;58475;49.662;9.636;2022-08-25T15:06:07;6.47;;;3.72;;
70850;SDS011;58475;49.662;9.636;2022-08-25T15:08:36;6.03;;;3.80;;
70850;SDS011;58475;49.662;9.636;2022-08-25T15:11:20;6.40;;;3.70;;
70850;SDS011;58475;49.662;9.636;2022-08-25T15:13:46;5.80;;;3.63;;
70850;SDS011;58475;49.662;9.636;2022-08-25T15:16:13;6.93;;;3.90;;
70850;SDS011;58475;49.662;9.636;2022-08-25T15:18:50;7.32;;;3.60;;
70850;SDS011;58475;49.662;9.636;2022-08-25T15:21:15;6.75;;;3.85;;
70850;SDS011;58475;49.662;9.636;2022-08-25T15:23:41;5.72;;;3.40;;
70850;SDS011;58475;49.662;9.636;2022-08-25T15:26:07;6.55;;;3.90;;
70850;SDS011;58475;49.662;9.636;2022-08-25T15:28:36;6.95;;;3.70;;
70850;SDS011;58475;49.662;9.636;2022-08-25T15:31:03;10.10;;;3.78;;
70850;SDS011;58475;49.662;9.636;2022-08-25T15:33:28;6.22;;;3.88;;
70850;SDS011;58475;49.662;9.636;2022-08-25T15:35:54;7.00;;;3.97;;
70850;SDS011;58475;49.662;9.636;2022-08-25T15:38:19;8.57;;;4.30;;
70850;SDS011;58475;49.662;9.636;2022-08-25T15:40:44;9.48;;;5.25;;
70850;SDS011;58475;49.662;9.636;2022-08-25T15:43:10;7.55;;;4.43;;
70850;SDS011;58475;49.662;9.636;2022-08-25T15:45:35;6.63;;;4.10;;
70850;SDS011;58475;49.662;9.636;2022-08-25T15:48:01;9.40;;;4.32;;
70850;SDS011;58475;49.662;9.636;2022-08-25T15:50:28;7.22;;;4.28;;
70850;SDS011;58475;49.662;9.636;2022-08-25T15:52:53;7.35;;;4.80;;
70850;SDS011;58475;49.662;9.636;2022-08-25T15:55:19;8.48;;;4.28;;
70850;SDS011;58475;49.662;9.636;2022-08-25T15:57:45;8.35;;;4.47;;
70850;SDS011;58475;49.662;9.636;2022-08-25T16:00:11;7.45;;;4.22;;
70850;SDS011;58475;49.662;9.636;2022-08-25T16:02:37;7.85;;;4.30;;
70850;SDS011;58475;49.662;9.636;2022-08-25T16:05:04;8.00;;;4.93;;
70850;SDS011;58475;49.662;9.636;2022-08-25T16:07:31;6.68;;;4.55;;
70850;SDS011;58475;49.662;9.636;2022-08-25T16:09:56;8.43;;;4.50;;
70850;SDS011;58475;49.662;9.636;2022-08-25T16:12:22;6.47;;;4.40;;
70850;SDS011;58475;49.662;9.636;2022-08-25T16:14:48;9.05;;;4.43;;
70850;SDS011;58475;49.662;9.636;2022-08-25T16:17:14;8.65;;;4.50;;
70850;SDS011;58475;49.662;9.636;2022-08-25T16:19:39;7.88;;;4.50;;
70850;SDS011;58475;49.662;9.636;2022-08-25T16:22:05;7.57;;;4.07;;
70850;SDS011;58475;49.662;9.636;2022-08-25T16:24:31;8.38;;;4.43;;
70850;SDS011;58475;49.662;9.636;2022-08-25T16:26:56;7.32;;;4.25;;
70850;SDS011;58475;49.662;9.636;2022-08-25T16:29:29;8.65;;;4.28;;
70850;SDS011;58475;49.662;9.636;2022-08-25T16:32:03;7.13;;;4.32;;
70850;SDS011;58475;49.662;9.636;2022-08-25T16:34:31;7.50;;;4.18;;
70850;SDS011;58475;49.662;9.636;2022-08-25T16:36:56;8.98;;;5.38;;
70850;SDS011;58475;49.662;9.636;2022-08-25T16:39:22;9.30;;;5.82;;
70850;SDS011;58475;49.662;9.636;2022-08-25T16:41:48;8.45;;;5.63;;
70850;SDS011;58475;49.662;9.636;2022-08-25T16:44:14;9.95;;;5.47;;
70850;SDS011;58475;49.662;9.636;2022-08-25T16:46:40;8.43;;;5.90;;
70850;SDS011;58475;49.662;9.636;2022-08-25T16:49:07;7.38;;;5.53;;
70850;SDS011;58475;49.662;9.636;2022-08-25T16:51:37;9.73;;;5.72;;
70850;SDS011;58475;49.662;9.636;2022-08-25T16:54:03;8.82;;;5.68;;
70850;SDS011;58475;49.662;9.636;2022-08-25T16:56:48;11.82;;;5.90;;